sensor_id;sensor_type;location;lat;lon;timestamp;temperature;humidity
11989;DHT22;6054;50.966;7.094;2023-03-17T00:01:17;16.20;38.00
11989;DHT22;6054;50.966;7.094;2023-03-17T00:03:45;16.30;38.40
11989;DHT22;6054;50.966;7.094;2023-03-17T00:06:16;16.30;38.40
11989;DHT22;6054;50.966;7.094;2023-03-17T00:08:44;16.30;38.30
11989;DHT22;6054;50.966;7.094;2023-03-17T00:11:15;16.30;38.20
11989;DHT22;6054;50.966;7.094;2023-03-17T00:13:42;16.30;38.30
11989;DHT22;6054;50.966;7.094;2023-03-17T00:16:14;16.40;38.40
11989;DHT22;6054;50.966;7.094;2023-03-17T00:18:41;16.40;38.30
11989;DHT22;6054;50.966;7.094;2023-03-17T00:21:10;16.30;38.00
11989;DHT22;6054;50.966;7.094;2023-03-17T00:23:38;16.30;38.20
11989;DHT22;6054;50.966;7.094;2023-03-17T00:26:05;16.30;38.30
11989;DHT22;6054;50.966;7.094;2023-03-17T00:28:33;16.30;38.00
11989;DHT22;6054;50.966;7.094;2023-03-17T00:31:00;16.30;38.20
11989;DHT22;6054;50.966;7.094;2023-03-17T00:33:33;16.30;38.40
11989;DHT22;6054;50.966;7.094;2023-03-17T00:36:01;16.30;38.40
11989;DHT22;6054;50.966;7.094;2023-03-17T00:38:28;16.30;38.20
11989;DHT22;6054;50.966;7.094;2023-03-17T00:40:55;16.30;38.10
11989;DHT22;6054;50.966;7.094;2023-03-17T00:43:22;16.20;38.10
11989;DHT22;6054;50.966;7.094;2023-03-17T00:45:51;16.30;38.00
11989;DHT22;6054;50.966;7.094;2023-03-17T00:48:20;16.20;38.00
11989;DHT22;6054;50.966;7.094;2023-03-17T00:50:48;16.30;38.40
11989;DHT22;6054;50.966;7.094;2023-03-17T00:53:17;16.20;38.40
11989;DHT22;6054;50.966;7.094;2023-03-17T00:55:45;16.30;38.20
11989;DHT22;6054;50.966;7.094;2023-03-17T00:58:14;16.30;38.40
11989;DHT22;6054;50.966;7.094;2023-03-17T01:00:43;16.20;38.10
11989;DHT22;6054;50.966;7.094;2023-03-17T01:03:11;16.20;38.30
11989;DHT22;6054;50.966;7.094;2023-03-17T01:05:39;16.20;38.30
11989;DHT22;6054;50.966;7.094;2023-03-17T01:08:07;16.20;38.30
11989;DHT22;6054;50.966;7.094;2023-03-17T01:10:35;16.30;38.50
11989;DHT22;6054;50.966;7.094;2023-03-17T01:13:03;16.20;38.40
11989;DHT22;6054;50.966;7.094;2023-03-17T01:15:31;16.30;38.50
11989;DHT22;6054;50.966;7.094;2023-03-17T01:17:58;16.10;38.40
11989;DHT22;6054;50.966;7.094;2023-03-17T01:20:29;16.10;38.60
11989;DHT22;6054;50.966;7.094;2023-03-17T01:22:57;16.20;38.70
11989;DHT22;6054;50.966;7.094;2023-03-17T01:25:24;16.10;38.20
11989;DHT22;6054;50.966;7.094;2023-03-17T01:27:54;16.10;38.30
11989;DHT22;6054;50.966;7.094;2023-03-17T01:30:24;16.10;38.70
11989;DHT22;6054;50.966;7.094;2023-03-17T01:32:52;16.10;38.60
11989;DHT22;6054;50.966;7.094;2023-03-17T01:35:19;16.20;38.50
11989;DHT22;6054;50.966;7.094;2023-03-17T01:37:47;16.10;38.20
11989;DHT22;6054;50.966;7.094;2023-03-17T01:40:16;16.10;38.30
11989;DHT22;6054;50.966;7.094;2023-03-17T01:42:47;16.10;38.60
11989;DHT22;6054;50.966;7.094;2023-03-17T01:48:20;16.00;38.60
11989;DHT22;6054;50.966;7.094;2023-03-17T01:50:47;16.00;38.60
11989;DHT22;6054;50.966;7.094;2023-03-17T01:53:17;16.00;38.70
11989;DHT22;6054;50.966;7.094;2023-03-17T01:55:45;15.90;38.60
11989;DHT22;6054;50.966;7.094;2023-03-17T01:58:13;15.90;38.40
11989;DHT22;6054;50.966;7.094;2023-03-17T02:00:41;16.00;38.90
11989;DHT22;6054;50.966;7.094;2023-03-17T02:03:11;15.90;38.60
11989;DHT22;6054;50.966;7.094;2023-03-17T02:05:38;16.20;38.70
11989;DHT22;6054;50.966;7.094;2023-03-17T02:08:08;15.90;38.50
11989;DHT22;6054;50.966;7.094;2023-03-17T02:10:38;15.90;38.60
11989;DHT22;6054;50.966;7.094;2023-03-17T02:13:07;15.90;38.70
11989;DHT22;6054;50.966;7.094;2023-03-17T02:15:37;15.90;38.60
11989;DHT22;6054;50.966;7.094;2023-03-17T02:18:05;15.90;38.80
11989;DHT22;6054;50.966;7.094;2023-03-17T02:21:28;15.90;38.70
11989;DHT22;6054;50.966;7.094;2023-03-17T02:23:56;15.90;38.90
11989;DHT22;6054;50.966;7.094;2023-03-17T02:26:25;15.90;38.80
11989;DHT22;6054;50.966;7.094;2023-03-17T02:28:52;15.90;38.80
11989;DHT22;6054;50.966;7.094;2023-03-17T02:31:19;15.80;38.50
11989;DHT22;6054;50.966;7.094;2023-03-17T02:33:46;15.90;38.70
11989;DHT22;6054;50.966;7.094;2023-03-17T02:36:14;15.80;38.50
11989;DHT22;6054;50.966;7.094;2023-03-17T02:38:41;15.70;38.40
11989;DHT22;6054;50.966;7.094;2023-03-17T02:41:08;16.00;38.80
11989;DHT22;6054;50.966;7.094;2023-03-17T02:43:35;15.70;38.60
11989;DHT22;6054;50.966;7.094;2023-03-17T02:46:02;15.70;38.50
11989;DHT22;6054;50.966;7.094;2023-03-17T02:48:30;15.80;38.50
11989;DHT22;6054;50.966;7.094;2023-03-17T02:50:57;15.70;38.60
11989;DHT22;6054;50.966;7.094;2023-03-17T02:53:25;15.70;38.50
11989;DHT22;6054;50.966;7.094;2023-03-17T02:55:52;15.70;38.40
11989;DHT22;6054;50.966;7.094;2023-03-17T02:58:19;15.70;38.70
11989;DHT22;6054;50.966;7.094;2023-03-17T03:00:46;15.70;38.80
11989;DHT22;6054;50.966;7.094;2023-03-17T03:03:13;15.70;39.10
11989;DHT22;6054;50.966;7.094;2023-03-17T03:05:40;15.90;38.60
11989;DHT22;6054;50.966;7.094;2023-03-17T03:08:07;15.80;38.60
11989;DHT22;6054;50.966;7.094;2023-03-17T03:10:35;15.70;38.60
11989;DHT22;6054;50.966;7.094;2023-03-17T03:13:02;15.80;38.60
11989;DHT22;6054;50.966;7.094;2023-03-17T03:15:29;15.70;38.50
11989;DHT22;6054;50.966;7.094;2023-03-17T03:17:56;15.70;38.60
11989;DHT22;6054;50.966;7.094;2023-03-17T03:20:22;15.70;38.70
11989;DHT22;6054;50.966;7.094;2023-03-17T03:22:49;15.80;38.60
11989;DHT22;6054;50.966;7.094;2023-03-17T03:25:17;15.70;38.60
11989;DHT22;6054;50.966;7.094;2023-03-17T03:27:45;15.60;38.40
11989;DHT22;6054;50.966;7.094;2023-03-17T03:30:12;15.60;38.70
11989;DHT22;6054;50.966;7.094;2023-03-17T03:32:39;15.70;38.80
11989;DHT22;6054;50.966;7.094;2023-03-17T03:35:06;15.60;39.00
11989;DHT22;6054;50.966;7.094;2023-03-17T03:37:33;15.60;38.80
11989;DHT22;6054;50.966;7.094;2023-03-17T03:40:00;15.60;38.70
11989;DHT22;6054;50.966;7.094;2023-03-17T03:42:27;15.60;38.70
11989;DHT22;6054;50.966;7.094;2023-03-17T03:44:55;15.60;38.80
11989;DHT22;6054;50.966;7.094;2023-03-17T03:47:22;15.60;38.80
11989;DHT22;6054;50.966;7.094;2023-03-17T03:49:48;15.80;38.90
11989;DHT22;6054;50.966;7.094;2023-03-17T03:52:15;15.50;38.90
11989;DHT22;6054;50.966;7.094;2023-03-17T03:54:42;15.50;38.80
11989;DHT22;6054;50.966;7.094;2023-03-17T03:57:09;15.40;38.70
11989;DHT22;6054;50.966;7.094;2023-03-17T03:59:36;15.40;38.80
11989;DHT22;6054;50.966;7.094;2023-03-17T04:02:04;15.40;38.90
11989;DHT22;6054;50.966;7.094;2023-03-17T04:04:31;15.30;38.90
11989;DHT22;6054;50.966;7.094;2023-03-17T04:06:58;15.30;38.80
11989;DHT22;6054;50.966;7.094;2023-03-17T04:09:26;15.30;38.80
11989;DHT22;6054;50.966;7.094;2023-03-17T04:11:52;15.50;39.10
11989;DHT22;6054;50.966;7.094;2023-03-17T04:14:19;15.30;38.80
11989;DHT22;6054;50.966;7.094;2023-03-17T04:16:46;15.40;38.90
11989;DHT22;6054;50.966;7.094;2023-03-17T04:19:14;15.60;39.10
11989;DHT22;6054;50.966;7.094;2023-03-17T04:21:40;15.30;38.80
11989;DHT22;6054;50.966;7.094;2023-03-17T04:24:08;15.30;39.00
11989;DHT22;6054;50.966;7.094;2023-03-17T04:26:34;15.30;38.90
11989;DHT22;6054;50.966;7.094;2023-03-17T04:29:01;15.30;38.90
11989;DHT22;6054;50.966;7.094;2023-03-17T04:31:28;15.30;38.80
11989;DHT22;6054;50.966;7.094;2023-03-17T04:33:55;15.30;38.70
11989;DHT22;6054;50.966;7.094;2023-03-17T04:36:23;15.20;38.70
11989;DHT22;6054;50.966;7.094;2023-03-17T04:38:50;15.30;38.80
11989;DHT22;6054;50.966;7.094;2023-03-17T04:41:17;15.30;38.90
11989;DHT22;6054;50.966;7.094;2023-03-17T04:43:43;15.30;39.20
11989;DHT22;6054;50.966;7.094;2023-03-17T04:46:10;15.30;38.90
11989;DHT22;6054;50.966;7.094;2023-03-17T04:48:37;15.30;38.90
11989;DHT22;6054;50.966;7.094;2023-03-17T04:51:04;15.30;38.80
11989;DHT22;6054;50.966;7.094;2023-03-17T04:53:32;15.30;38.70
11989;DHT22;6054;50.966;7.094;2023-03-17T04:55:59;15.20;38.80
11989;DHT22;6054;50.966;7.094;2023-03-17T04:58:26;15.20;38.70
11989;DHT22;6054;50.966;7.094;2023-03-17T05:00:53;15.20;38.70
11989;DHT22;6054;50.966;7.094;2023-03-17T05:03:20;15.20;38.80
11989;DHT22;6054;50.966;7.094;2023-03-17T05:05:47;15.20;38.70
11989;DHT22;6054;50.966;7.094;2023-03-17T05:08:15;15.40;39.00
11989;DHT22;6054;50.966;7.094;2023-03-17T05:10:43;15.20;38.80
11989;DHT22;6054;50.966;7.094;2023-03-17T05:13:09;15.20;38.90
11989;DHT22;6054;50.966;7.094;2023-03-17T05:15:36;15.20;38.80
11989;DHT22;6054;50.966;7.094;2023-03-17T05:18:03;15.20;38.70
11989;DHT22;6054;50.966;7.094;2023-03-17T05:20:30;15.30;38.70
11989;DHT22;6054;50.966;7.094;2023-03-17T05:22:56;15.30;39.00
11989;DHT22;6054;50.966;7.094;2023-03-17T05:25:23;15.30;38.90
11989;DHT22;6054;50.966;7.094;2023-03-17T05:27:51;15.20;38.70
11989;DHT22;6054;50.966;7.094;2023-03-17T05:30:18;15.10;38.80
11989;DHT22;6054;50.966;7.094;2023-03-17T05:32:45;15.10;38.80
11989;DHT22;6054;50.966;7.094;2023-03-17T05:35:12;15.10;38.80
11989;DHT22;6054;50.966;7.094;2023-03-17T05:37:38;15.20;39.00
11989;DHT22;6054;50.966;7.094;2023-03-17T05:40:05;15.20;38.90
11989;DHT22;6054;50.966;7.094;2023-03-17T05:42:32;15.10;39.10
11989;DHT22;6054;50.966;7.094;2023-03-17T05:45:01;15.10;39.30
11989;DHT22;6054;50.966;7.094;2023-03-17T05:47:29;15.10;39.00
11989;DHT22;6054;50.966;7.094;2023-03-17T05:49:56;15.00;39.10
11989;DHT22;6054;50.966;7.094;2023-03-17T05:52:23;15.10;39.10
11989;DHT22;6054;50.966;7.094;2023-03-17T05:54:50;15.00;39.10
11989;DHT22;6054;50.966;7.094;2023-03-17T05:57:18;15.30;39.40
11989;DHT22;6054;50.966;7.094;2023-03-17T05:59:44;15.10;39.10
11989;DHT22;6054;50.966;7.094;2023-03-17T06:02:13;15.10;39.20
11989;DHT22;6054;50.966;7.094;2023-03-17T06:04:40;15.10;39.30
11989;DHT22;6054;50.966;7.094;2023-03-17T06:07:08;15.10;39.50
11989;DHT22;6054;50.966;7.094;2023-03-17T06:09:36;15.10;39.40
11989;DHT22;6054;50.966;7.094;2023-03-17T06:12:03;15.10;39.00
11989;DHT22;6054;50.966;7.094;2023-03-17T06:14:31;15.20;39.50
11989;DHT22;6054;50.966;7.094;2023-03-17T06:16:58;15.20;39.00
11989;DHT22;6054;50.966;7.094;2023-03-17T06:19:26;15.30;39.10
11989;DHT22;6054;50.966;7.094;2023-03-17T06:21:52;15.30;39.20
11989;DHT22;6054;50.966;7.094;2023-03-17T06:24:19;15.30;39.10
11989;DHT22;6054;50.966;7.094;2023-03-17T06:26:46;15.30;39.10
11989;DHT22;6054;50.966;7.094;2023-03-17T06:29:13;15.30;39.10
11989;DHT22;6054;50.966;7.094;2023-03-17T06:31:40;15.30;39.10
11989;DHT22;6054;50.966;7.094;2023-03-17T06:34:07;15.40;39.20
11989;DHT22;6054;50.966;7.094;2023-03-17T06:36:35;15.40;39.10
11989;DHT22;6054;50.966;7.094;2023-03-17T06:39:03;15.40;39.10
11989;DHT22;6054;50.966;7.094;2023-03-17T06:41:30;15.40;38.90
11989;DHT22;6054;50.966;7.094;2023-03-17T06:43:57;15.40;39.00
11989;DHT22;6054;50.966;7.094;2023-03-17T06:46:24;15.40;39.00
11989;DHT22;6054;50.966;7.094;2023-03-17T06:48:51;15.50;39.10
11989;DHT22;6054;50.966;7.094;2023-03-17T06:51:18;15.50;38.80
11989;DHT22;6054;50.966;7.094;2023-03-17T06:53:46;15.50;38.80
11989;DHT22;6054;50.966;7.094;2023-03-17T06:56:13;15.60;39.00
11989;DHT22;6054;50.966;7.094;2023-03-17T06:58:40;15.60;38.80
11989;DHT22;6054;50.966;7.094;2023-03-17T07:01:07;15.70;38.90
11989;DHT22;6054;50.966;7.094;2023-03-17T07:03:34;15.70;38.90
11989;DHT22;6054;50.966;7.094;2023-03-17T07:06:01;15.70;38.80
11989;DHT22;6054;50.966;7.094;2023-03-17T07:08:27;15.80;38.50
11989;DHT22;6054;50.966;7.094;2023-03-17T07:10:56;15.80;38.60
11989;DHT22;6054;50.966;7.094;2023-03-17T07:13:23;15.80;38.60
11989;DHT22;6054;50.966;7.094;2023-03-17T07:15:50;15.90;38.70
11989;DHT22;6054;50.966;7.094;2023-03-17T07:18:17;15.90;38.60
11989;DHT22;6054;50.966;7.094;2023-03-17T07:20:44;15.90;38.70
11989;DHT22;6054;50.966;7.094;2023-03-17T07:23:13;15.90;38.80
11989;DHT22;6054;50.966;7.094;2023-03-17T07:25:41;16.00;39.00
11989;DHT22;6054;50.966;7.094;2023-03-17T07:28:09;16.10;38.90
11989;DHT22;6054;50.966;7.094;2023-03-17T07:30:36;16.00;38.70
11989;DHT22;6054;50.966;7.094;2023-03-17T07:33:03;16.10;38.70
11989;DHT22;6054;50.966;7.094;2023-03-17T07:35:30;16.30;38.90
11989;DHT22;6054;50.966;7.094;2023-03-17T07:37:57;16.10;38.60
11989;DHT22;6054;50.966;7.094;2023-03-17T07:40:24;16.20;39.00
11989;DHT22;6054;50.966;7.094;2023-03-17T07:42:51;16.20;39.10
11989;DHT22;6054;50.966;7.094;2023-03-17T07:45:19;16.30;38.80
11989;DHT22;6054;50.966;7.094;2023-03-17T07:47:46;16.30;38.70
11989;DHT22;6054;50.966;7.094;2023-03-17T07:50:13;16.40;38.50
11989;DHT22;6054;50.966;7.094;2023-03-17T07:52:40;16.40;38.60
11989;DHT22;6054;50.966;7.094;2023-03-17T07:55:08;16.40;38.80
11989;DHT22;6054;50.966;7.094;2023-03-17T07:57:37;16.40;38.40
11989;DHT22;6054;50.966;7.094;2023-03-17T08:00:04;16.50;38.40
11989;DHT22;6054;50.966;7.094;2023-03-17T08:02:36;16.60;38.70
11989;DHT22;6054;50.966;7.094;2023-03-17T08:05:03;16.60;38.40
11989;DHT22;6054;50.966;7.094;2023-03-17T08:07:32;16.70;38.80
11989;DHT22;6054;50.966;7.094;2023-03-17T08:09:59;16.80;38.70
11989;DHT22;6054;50.966;7.094;2023-03-17T08:12:26;16.90;38.60
11989;DHT22;6054;50.966;7.094;2023-03-17T08:14:52;17.00;38.60
11989;DHT22;6054;50.966;7.094;2023-03-17T08:17:20;17.00;38.50
11989;DHT22;6054;50.966;7.094;2023-03-17T08:19:52;17.10;38.20
11989;DHT22;6054;50.966;7.094;2023-03-17T08:22:19;17.10;37.90
11989;DHT22;6054;50.966;7.094;2023-03-17T08:24:46;17.10;38.00
11989;DHT22;6054;50.966;7.094;2023-03-17T08:27:13;17.20;38.10
11989;DHT22;6054;50.966;7.094;2023-03-17T08:29:40;17.30;38.10
11989;DHT22;6054;50.966;7.094;2023-03-17T08:32:08;17.30;38.10
11989;DHT22;6054;50.966;7.094;2023-03-17T08:34:34;17.40;38.00
11989;DHT22;6054;50.966;7.094;2023-03-17T08:37:03;17.50;38.00
11989;DHT22;6054;50.966;7.094;2023-03-17T08:39:31;17.60;38.30
11989;DHT22;6054;50.966;7.094;2023-03-17T08:41:58;17.70;38.20
11989;DHT22;6054;50.966;7.094;2023-03-17T08:44:25;17.80;38.00
11989;DHT22;6054;50.966;7.094;2023-03-17T08:46:52;17.90;38.20
11989;DHT22;6054;50.966;7.094;2023-03-17T08:49:19;18.00;38.10
11989;DHT22;6054;50.966;7.094;2023-03-17T08:51:46;18.10;37.90
11989;DHT22;6054;50.966;7.094;2023-03-17T08:54:14;18.20;37.60
11989;DHT22;6054;50.966;7.094;2023-03-17T08:59:09;18.40;37.40
11989;DHT22;6054;50.966;7.094;2023-03-17T09:01:36;18.50;37.40
11989;DHT22;6054;50.966;7.094;2023-03-17T09:04:04;18.60;37.30
11989;DHT22;6054;50.966;7.094;2023-03-17T09:06:31;18.70;37.40
11989;DHT22;6054;50.966;7.094;2023-03-17T09:08:58;18.70;36.90
11989;DHT22;6054;50.966;7.094;2023-03-17T09:11:27;18.80;36.40
11989;DHT22;6054;50.966;7.094;2023-03-17T09:13:54;18.90;36.80
11989;DHT22;6054;50.966;7.094;2023-03-17T09:16:21;18.90;36.70
11989;DHT22;6054;50.966;7.094;2023-03-17T09:18:48;19.00;36.60
11989;DHT22;6054;50.966;7.094;2023-03-17T09:21:15;18.90;36.40
11989;DHT22;6054;50.966;7.094;2023-03-17T09:23:42;18.90;36.50
11989;DHT22;6054;50.966;7.094;2023-03-17T09:26:10;19.10;36.40
11989;DHT22;6054;50.966;7.094;2023-03-17T09:28:39;19.10;36.30
11989;DHT22;6054;50.966;7.094;2023-03-17T09:31:06;19.10;36.40
11989;DHT22;6054;50.966;7.094;2023-03-17T09:33:36;19.10;36.60
11989;DHT22;6054;50.966;7.094;2023-03-17T09:36:03;19.20;36.60
11989;DHT22;6054;50.966;7.094;2023-03-17T09:38:29;19.40;36.70
11989;DHT22;6054;50.966;7.094;2023-03-17T09:41:01;19.40;36.70
11989;DHT22;6054;50.966;7.094;2023-03-17T09:43:35;19.40;36.70
11989;DHT22;6054;50.966;7.094;2023-03-17T09:46:20;19.50;36.90
11989;DHT22;6054;50.966;7.094;2023-03-17T09:48:58;19.60;36.60
11989;DHT22;6054;50.966;7.094;2023-03-17T09:51:26;19.70;36.40
11989;DHT22;6054;50.966;7.094;2023-03-17T09:53:57;19.70;36.10
11989;DHT22;6054;50.966;7.094;2023-03-17T09:56:26;19.70;36.10
11989;DHT22;6054;50.966;7.094;2023-03-17T09:58:55;19.80;35.90
11989;DHT22;6054;50.966;7.094;2023-03-17T10:01:24;19.80;36.10
11989;DHT22;6054;50.966;7.094;2023-03-17T10:03:52;19.90;35.80
11989;DHT22;6054;50.966;7.094;2023-03-17T10:06:29;20.00;35.90
11989;DHT22;6054;50.966;7.094;2023-03-17T10:09:02;20.00;36.00
11989;DHT22;6054;50.966;7.094;2023-03-17T10:11:39;20.00;35.80
11989;DHT22;6054;50.966;7.094;2023-03-17T10:14:21;20.10;36.00
11989;DHT22;6054;50.966;7.094;2023-03-17T10:16:58;20.20;35.90
11989;DHT22;6054;50.966;7.094;2023-03-17T10:19:28;20.30;36.10
11989;DHT22;6054;50.966;7.094;2023-03-17T10:21:58;20.30;36.00
11989;DHT22;6054;50.966;7.094;2023-03-17T10:24:28;20.40;36.00
11989;DHT22;6054;50.966;7.094;2023-03-17T10:26:58;20.40;35.60
11989;DHT22;6054;50.966;7.094;2023-03-17T10:29:29;20.50;35.60
11989;DHT22;6054;50.966;7.094;2023-03-17T10:31:58;20.60;35.50
11989;DHT22;6054;50.966;7.094;2023-03-17T10:34:26;20.70;35.60
11989;DHT22;6054;50.966;7.094;2023-03-17T10:36:59;20.70;35.80
11989;DHT22;6054;50.966;7.094;2023-03-17T10:39:26;20.90;35.60
11989;DHT22;6054;50.966;7.094;2023-03-17T10:41:56;20.90;35.00
11989;DHT22;6054;50.966;7.094;2023-03-17T10:44:39;20.90;35.40
11989;DHT22;6054;50.966;7.094;2023-03-17T10:47:21;21.00;35.30
11989;DHT22;6054;50.966;7.094;2023-03-17T10:49:48;21.00;35.20
11989;DHT22;6054;50.966;7.094;2023-03-17T10:52:20;21.10;34.70
11989;DHT22;6054;50.966;7.094;2023-03-17T10:54:48;21.10;34.70
11989;DHT22;6054;50.966;7.094;2023-03-17T10:57:15;21.20;34.80
11989;DHT22;6054;50.966;7.094;2023-03-17T10:59:48;21.20;34.30
11989;DHT22;6054;50.966;7.094;2023-03-17T11:02:24;21.30;34.60
11989;DHT22;6054;50.966;7.094;2023-03-17T11:04:54;21.30;34.60
11989;DHT22;6054;50.966;7.094;2023-03-17T11:07:28;21.30;34.40
11989;DHT22;6054;50.966;7.094;2023-03-17T11:09:57;21.40;34.60
11989;DHT22;6054;50.966;7.094;2023-03-17T11:12:26;21.60;34.60
11989;DHT22;6054;50.966;7.094;2023-03-17T11:14:58;21.40;34.70
11989;DHT22;6054;50.966;7.094;2023-03-17T11:17:36;21.50;34.90
11989;DHT22;6054;50.966;7.094;2023-03-17T11:23:01;21.60;35.30
11989;DHT22;6054;50.966;7.094;2023-03-17T11:25:31;21.60;34.70
11989;DHT22;6054;50.966;7.094;2023-03-17T11:28:11;21.90;34.60
11989;DHT22;6054;50.966;7.094;2023-03-17T11:30:49;21.70;34.80
11989;DHT22;6054;50.966;7.094;2023-03-17T11:33:27;21.80;35.10
11989;DHT22;6054;50.966;7.094;2023-03-17T11:36:02;21.80;35.10
11989;DHT22;6054;50.966;7.094;2023-03-17T11:38:34;21.90;35.00
11989;DHT22;6054;50.966;7.094;2023-03-17T11:41:20;22.00;34.80
11989;DHT22;6054;50.966;7.094;2023-03-17T11:44:02;22.00;34.80
11989;DHT22;6054;50.966;7.094;2023-03-17T11:46:34;22.10;34.90
11989;DHT22;6054;50.966;7.094;2023-03-17T11:49:10;22.00;34.70
11989;DHT22;6054;50.966;7.094;2023-03-17T11:51:52;22.00;34.70
11989;DHT22;6054;50.966;7.094;2023-03-17T11:54:28;22.00;34.70
11989;DHT22;6054;50.966;7.094;2023-03-17T11:57:01;22.30;34.90
11989;DHT22;6054;50.966;7.094;2023-03-17T11:59:32;22.20;34.50
11989;DHT22;6054;50.966;7.094;2023-03-17T12:02:09;22.20;34.40
11989;DHT22;6054;50.966;7.094;2023-03-17T12:04:48;22.30;34.80
11989;DHT22;6054;50.966;7.094;2023-03-17T12:07:20;22.40;34.70
11989;DHT22;6054;50.966;7.094;2023-03-17T12:09:55;22.50;34.70
11989;DHT22;6054;50.966;7.094;2023-03-17T12:12:28;22.60;34.40
11989;DHT22;6054;50.966;7.094;2023-03-17T12:14:56;22.60;34.40
11989;DHT22;6054;50.966;7.094;2023-03-17T12:17:28;22.60;34.00
11989;DHT22;6054;50.966;7.094;2023-03-17T12:20:02;22.70;34.50
11989;DHT22;6054;50.966;7.094;2023-03-17T12:22:33;22.80;34.70
11989;DHT22;6054;50.966;7.094;2023-03-17T12:25:09;22.90;34.60
11989;DHT22;6054;50.966;7.094;2023-03-17T12:27:43;23.00;35.00
11989;DHT22;6054;50.966;7.094;2023-03-17T12:30:19;23.10;33.80
11989;DHT22;6054;50.966;7.094;2023-03-17T12:32:56;23.10;33.90
11989;DHT22;6054;50.966;7.094;2023-03-17T12:35:28;23.10;33.80
11989;DHT22;6054;50.966;7.094;2023-03-17T12:37:58;23.10;33.80
11989;DHT22;6054;50.966;7.094;2023-03-17T12:40:31;23.20;33.90
11989;DHT22;6054;50.966;7.094;2023-03-17T12:43:11;23.20;33.90
11989;DHT22;6054;50.966;7.094;2023-03-17T12:46:06;23.20;34.00
11989;DHT22;6054;50.966;7.094;2023-03-17T12:48:48;23.30;33.70
11989;DHT22;6054;50.966;7.094;2023-03-17T12:51:38;23.50;33.80
11989;DHT22;6054;50.966;7.094;2023-03-17T12:54:12;23.30;33.70
11989;DHT22;6054;50.966;7.094;2023-03-17T12:56:43;23.30;33.60
11989;DHT22;6054;50.966;7.094;2023-03-17T12:59:15;23.40;33.40
11989;DHT22;6054;50.966;7.094;2023-03-17T13:01:44;23.40;33.40
11989;DHT22;6054;50.966;7.094;2023-03-17T13:04:16;23.40;33.60
11989;DHT22;6054;50.966;7.094;2023-03-17T13:06:56;23.40;33.30
11989;DHT22;6054;50.966;7.094;2023-03-17T13:12:54;23.60;33.40
11989;DHT22;6054;50.966;7.094;2023-03-17T13:15:56;23.90;33.50
11989;DHT22;6054;50.966;7.094;2023-03-17T13:21:16;23.90;33.20
11989;DHT22;6054;50.966;7.094;2023-03-17T13:23:52;24.10;33.20
11989;DHT22;6054;50.966;7.094;2023-03-17T13:26:20;24.20;32.80
11989;DHT22;6054;50.966;7.094;2023-03-17T13:28:49;24.20;32.60
11989;DHT22;6054;50.966;7.094;2023-03-17T13:31:32;24.50;32.80
11989;DHT22;6054;50.966;7.094;2023-03-17T13:34:11;24.30;32.60
11989;DHT22;6054;50.966;7.094;2023-03-17T13:36:46;24.50;32.90
11989;DHT22;6054;50.966;7.094;2023-03-17T13:39:56;24.50;32.30
11989;DHT22;6054;50.966;7.094;2023-03-17T13:42:43;24.50;32.30
11989;DHT22;6054;50.966;7.094;2023-03-17T13:45:22;24.60;32.80
11989;DHT22;6054;50.966;7.094;2023-03-17T13:47:50;24.70;32.70
11989;DHT22;6054;50.966;7.094;2023-03-17T13:50:22;24.80;32.00
11989;DHT22;6054;50.966;7.094;2023-03-17T13:52:53;24.90;32.40
11989;DHT22;6054;50.966;7.094;2023-03-17T13:55:35;24.80;32.00
11989;DHT22;6054;50.966;7.094;2023-03-17T13:58:19;24.90;32.00
11989;DHT22;6054;50.966;7.094;2023-03-17T14:00:55;24.90;31.90
11989;DHT22;6054;50.966;7.094;2023-03-17T14:03:33;24.90;31.80
11989;DHT22;6054;50.966;7.094;2023-03-17T14:06:06;25.00;32.00
11989;DHT22;6054;50.966;7.094;2023-03-17T14:08:35;25.00;31.60
11989;DHT22;6054;50.966;7.094;2023-03-17T14:11:06;25.00;31.80
11989;DHT22;6054;50.966;7.094;2023-03-17T14:13:37;25.00;31.80
11989;DHT22;6054;50.966;7.094;2023-03-17T14:16:13;25.00;31.70
11989;DHT22;6054;50.966;7.094;2023-03-17T14:18:44;25.00;31.80
11989;DHT22;6054;50.966;7.094;2023-03-17T14:21:21;25.20;32.00
11989;DHT22;6054;50.966;7.094;2023-03-17T14:23:53;25.10;31.80
11989;DHT22;6054;50.966;7.094;2023-03-17T14:26:23;25.10;31.80
11989;DHT22;6054;50.966;7.094;2023-03-17T14:28:51;25.20;31.70
11989;DHT22;6054;50.966;7.094;2023-03-17T14:31:22;25.20;31.40
11989;DHT22;6054;50.966;7.094;2023-03-17T14:33:51;25.20;31.80
11989;DHT22;6054;50.966;7.094;2023-03-17T14:36:20;25.20;31.60
11989;DHT22;6054;50.966;7.094;2023-03-17T14:38:48;25.40;31.90
11989;DHT22;6054;50.966;7.094;2023-03-17T14:41:17;25.30;31.70
11989;DHT22;6054;50.966;7.094;2023-03-17T14:43:46;25.20;31.30
11989;DHT22;6054;50.966;7.094;2023-03-17T14:46:14;25.10;31.10
11989;DHT22;6054;50.966;7.094;2023-03-17T14:48:43;25.10;31.30
11989;DHT22;6054;50.966;7.094;2023-03-17T14:51:22;25.10;31.80
11989;DHT22;6054;50.966;7.094;2023-03-17T14:53:51;25.10;32.30
11989;DHT22;6054;50.966;7.094;2023-03-17T14:56:21;25.10;31.90
11989;DHT22;6054;50.966;7.094;2023-03-17T14:58:50;25.10;32.00
11989;DHT22;6054;50.966;7.094;2023-03-17T15:01:21;25.10;31.70
11989;DHT22;6054;50.966;7.094;2023-03-17T15:03:54;25.00;31.80
11989;DHT22;6054;50.966;7.094;2023-03-17T15:06:23;25.00;31.90
11989;DHT22;6054;50.966;7.094;2023-03-17T15:08:51;24.90;31.90
11989;DHT22;6054;50.966;7.094;2023-03-17T15:11:21;24.90;31.80
11989;DHT22;6054;50.966;7.094;2023-03-17T15:13:53;24.80;31.80
11989;DHT22;6054;50.966;7.094;2023-03-17T15:16:23;24.70;31.90
11989;DHT22;6054;50.966;7.094;2023-03-17T15:18:56;24.70;32.10
11989;DHT22;6054;50.966;7.094;2023-03-17T15:21:32;24.70;32.50
11989;DHT22;6054;50.966;7.094;2023-03-17T15:24:19;24.60;32.20
11989;DHT22;6054;50.966;7.094;2023-03-17T15:26:47;24.60;32.20
11989;DHT22;6054;50.966;7.094;2023-03-17T15:29:15;24.50;31.70
11989;DHT22;6054;50.966;7.094;2023-03-17T15:31:42;24.50;31.90
11989;DHT22;6054;50.966;7.094;2023-03-17T15:34:10;24.40;31.60
11989;DHT22;6054;50.966;7.094;2023-03-17T15:36:37;24.40;31.90
11989;DHT22;6054;50.966;7.094;2023-03-17T15:39:03;24.40;31.90
11989;DHT22;6054;50.966;7.094;2023-03-17T15:41:31;24.40;31.60
11989;DHT22;6054;50.966;7.094;2023-03-17T15:43:57;24.30;31.50
11989;DHT22;6054;50.966;7.094;2023-03-17T15:46:27;24.20;31.10
11989;DHT22;6054;50.966;7.094;2023-03-17T15:48:55;24.20;31.60
11989;DHT22;6054;50.966;7.094;2023-03-17T15:51:22;24.10;31.60
11989;DHT22;6054;50.966;7.094;2023-03-17T15:53:48;24.00;31.50
11989;DHT22;6054;50.966;7.094;2023-03-17T15:56:16;24.00;31.50
11989;DHT22;6054;50.966;7.094;2023-03-17T15:58:45;24.00;32.00
11989;DHT22;6054;50.966;7.094;2023-03-17T16:01:15;24.00;31.90
11989;DHT22;6054;50.966;7.094;2023-03-17T16:03:44;23.90;31.60
11989;DHT22;6054;50.966;7.094;2023-03-17T16:06:14;23.90;32.00
11989;DHT22;6054;50.966;7.094;2023-03-17T16:08:42;23.90;31.80
11989;DHT22;6054;50.966;7.094;2023-03-17T16:11:16;23.80;31.90
11989;DHT22;6054;50.966;7.094;2023-03-17T16:13:44;23.90;32.20
11989;DHT22;6054;50.966;7.094;2023-03-17T16:16:18;23.80;32.20